Time;durP1;ratioP1;P1;durP2;ratioP2;P2;SDS_P1;SDS_P2;PMS_P1;PMS_P2;Temp;Humidity;BMP_temperature;BMP_pressure;BME280_temperature;BME280_humidity;BME280_pressure;Samples;Min_cycle;Max_cycle;Signal;HPM_P1;HPM_P2
2023/10/25 00:03:10;;;;;;;10.20;6.90;;;;;;;;;;20997786;28;20786;-67
2023/10/25 00:13:12;;;;;;;8.97;7.20;;;;;;;;;;20998665;28;20262;-67
2023/10/25 00:23:15;;;;;;;11.23;8.57;;;;;;;;;;20998823;28;20325;-69
2023/10/25 00:33:17;;;;;;;8.57;6.50;;;;;;;;;;20997068;28;20541;-68
2023/10/25 00:43:20;;;;;;;11.13;7.00;;;;;;;;;;20996370;28;20326;-68
2023/10/25 00:53:24;;;;;;;12.30;6.70;;;;;;;;;;20995933;28;20297;-66
2023/10/25 01:03:26;;;;;;;11.03;7.00;;;;;;;;;;20994955;28;20234;-68
2023/10/25 01:13:28;;;;;;;11.43;6.80;;;;;;;;;;21010185;28;20217;-68
2023/10/25 01:23:30;;;;;;;8.90;5.60;;;;;;;;;;21022465;28;20246;-66
2023/10/25 01:33:32;;;;;;;5.97;5.07;;;;;;;;;;21021801;28;20298;-65
2023/10/25 01:43:34;;;;;;;8.43;5.20;;;;;;;;;;21021421;28;20710;-66
2023/10/25 01:53:38;;;;;;;8.17;6.43;;;;;;;;;;21021454;28;20214;-65
2023/10/25 02:03:40;;;;;;;9.10;5.60;;;;;;;;;;20983913;28;20250;-67
2023/10/25 02:13:42;;;;;;;7.63;5.20;;;;;;;;;;20937414;28;20214;-66
2023/10/25 02:23:45;;;;;;;7.27;6.10;;;;;;;;;;20930973;28;20242;-65
2023/10/25 02:33:47;;;;;;;7.27;5.70;;;;;;;;;;20923350;28;20310;-67
2023/10/25 02:43:53;;;;;;;8.33;6.03;;;;;;;;;;20922520;28;20243;-68
2023/10/25 02:53:55;;;;;;;8.83;6.47;;;;;;;;;;20922236;28;20212;-68
2023/10/25 03:03:58;;;;;;;7.80;6.30;;;;;;;;;;20920824;28;20602;-68
2023/10/25 03:14:00;;;;;;;9.67;6.57;;;;;;;;;;20920361;28;20222;-68
2023/10/25 03:24:03;;;;;;;10.03;6.93;;;;;;;;;;20919864;28;20232;-66
2023/10/25 03:34:05;;;;;;;12.13;6.70;;;;;;;;;;20917545;28;20214;-66
2023/10/25 03:44:07;;;;;;;8.03;6.77;;;;;;;;;;20917839;28;20285;-66
2023/10/25 03:54:09;;;;;;;11.90;7.10;;;;;;;;;;20917659;28;20727;-69
2023/10/25 04:04:12;;;;;;;12.07;7.80;;;;;;;;;;20916125;28;20246;-68
2023/10/25 04:14:14;;;;;;;10.80;7.67;;;;;;;;;;20915793;28;20212;-69
2023/10/25 04:24:16;;;;;;;11.10;7.87;;;;;;;;;;20913433;28;20339;-65
2023/10/25 04:34:19;;;;;;;15.53;10.00;;;;;;;;;;20914058;28;20282;-65
2023/10/25 04:44:21;;;;;;;14.93;10.77;;;;;;;;;;20913060;28;20314;-65
2023/10/25 04:54:23;;;;;;;16.20;10.40;;;;;;;;;;20913175;28;20213;-63
2023/10/25 05:04:25;;;;;;;17.97;11.50;;;;;;;;;;20911472;28;20237;-63
2023/10/25 05:14:27;;;;;;;17.30;11.53;;;;;;;;;;20926563;28;20621;-67
2023/10/25 05:24:29;;;;;;;18.80;11.23;;;;;;;;;;20991069;28;20706;-66
2023/10/25 05:34:32;;;;;;;17.87;11.13;;;;;;;;;;20992251;28;20213;-66
2023/10/25 05:44:34;;;;;;;18.07;10.80;;;;;;;;;;20992592;28;20213;-67
2023/10/25 05:54:37;;;;;;;17.93;12.00;;;;;;;;;;20972607;28;20666;-67
2023/10/25 06:04:39;;;;;;;14.83;10.90;;;;;;;;;;21006494;28;20603;-67
2023/10/25 06:14:42;;;;;;;17.77;11.27;;;;;;;;;;21007335;28;20206;-67
2023/10/25 06:24:44;;;;;;;25.27;17.80;;;;;;;;;;21007090;28;20237;-66
2023/10/25 06:34:47;;;;;;;17.97;11.87;;;;;;;;;;21005767;28;20570;-67
2023/10/25 06:44:50;;;;;;;16.53;11.53;;;;;;;;;;21004770;28;20213;-68
2023/10/25 06:54:53;;;;;;;18.30;12.73;;;;;;;;;;21004636;28;20227;-67
2023/10/25 07:05:01;;;;;;;19.20;12.00;;;;;;;;;;20985615;28;20242;-68
2023/10/25 07:15:03;;;;;;;17.73;11.93;;;;;;;;;;21001893;28;20684;-67
2023/10/25 07:25:06;;;;;;;17.10;11.73;;;;;;;;;;21002438;28;20206;-69
2023/10/25 07:35:08;;;;;;;16.40;11.50;;;;;;;;;;21001766;28;20566;-69
2023/10/25 07:45:11;;;;;;;22.77;13.83;;;;;;;;;;20998322;28;20221;-69
2023/10/25 07:55:13;;;;;;;26.40;17.47;;;;;;;;;;20999621;28;20238;-68
2023/10/25 08:05:35;;;;;;;21.23;13.87;;;;;;;;;;20999444;28;20650;-68
2023/10/25 08:15:37;;;;;;;26.13;15.30;;;;;;;;;;20997892;28;20241;-68
2023/10/25 08:25:39;;;;;;;20.90;13.63;;;;;;;;;;20996431;28;20207;-67
2023/10/25 08:35:42;;;;;;;15.77;10.90;;;;;;;;;;20996865;28;20723;-67
2023/10/25 08:45:45;;;;;;;24.93;14.17;;;;;;;;;;20995886;28;20209;-67
2023/10/25 08:55:49;;;;;;;43.57;19.03;;;;;;;;;;20995453;28;20314;-68
2023/10/25 09:05:51;;;;;;;42.47;19.87;;;;;;;;;;20995332;28;20342;-69
2023/10/25 09:16:12;;;;;;;39.70;20.83;;;;;;;;;;20993912;28;20647;-69
2023/10/25 09:26:15;;;;;;;32.57;18.57;;;;;;;;;;20992735;28;20204;-68
2023/10/25 09:36:19;;;;;;;34.13;17.63;;;;;;;;;;21005751;28;20238;-69
2023/10/25 09:46:25;;;;;;;19.33;13.07;;;;;;;;;;20991989;28;20238;-68
2023/10/25 09:56:28;;;;;;;16.87;12.30;;;;;;;;;;21008889;28;20235;-68
2023/10/25 10:06:43;;;;;;;15.30;10.23;;;;;;;;;;21008269;28;20242;-68
2023/10/25 10:16:45;;;;;;;10.37;8.67;;;;;;;;;;21033221;28;20643;-68
2023/10/25 10:26:47;;;;;;;13.27;7.63;;;;;;;;;;21019759;28;20233;-65
2023/10/25 10:37:05;;;;;;;5.53;3.80;;;;;;;;;;21005968;28;20235;-66
2023/10/25 10:47:08;;;;;;;2.90;2.60;;;;;;;;;;21004802;28;20239;-65
2023/10/25 10:57:14;;;;;;;3.10;2.80;;;;;;;;;;21003646;28;20706;-67
2023/10/25 11:07:17;;;;;;;4.10;3.30;;;;;;;;;;21007310;28;20227;-68
2023/10/25 11:17:20;;;;;;;5.23;4.50;;;;;;;;;;21025766;28;20248;-69
2023/10/25 11:27:23;;;;;;;7.43;5.87;;;;;;;;;;21033666;28;20212;-70
2023/10/25 11:37:25;;;;;;;15.37;6.10;;;;;;;;;;21025512;28;20246;-69
2023/10/25 11:47:28;;;;;;;10.07;5.87;;;;;;;;;;21010209;28;20207;-69
2023/10/25 11:57:31;;;;;;;7.60;5.37;;;;;;;;;;20998143;28;20235;-71
2023/10/25 12:07:33;;;;;;;6.53;5.80;;;;;;;;;;21070141;28;20230;-69
2023/10/25 12:17:35;;;;;;;9.37;6.10;;;;;;;;;;21077624;28;20234;-69
2023/10/25 12:27:37;;;;;;;15.17;6.83;;;;;;;;;;21063259;28;20302;-69
2023/10/25 12:37:40;;;;;;;7.77;5.90;;;;;;;;;;21079380;28;20344;-68
2023/10/25 12:47:42;;;;;;;10.13;7.27;;;;;;;;;;21076300;28;20207;-70
2023/10/25 12:57:44;;;;;;;9.93;6.43;;;;;;;;;;21044871;28;20601;-67
2023/10/25 13:07:46;;;;;;;7.80;6.03;;;;;;;;;;21078495;28;20642;-70
2023/10/25 13:17:48;;;;;;;7.60;4.20;;;;;;;;;;21078181;28;20761;-69
2023/10/25 13:27:51;;;;;;;6.60;4.40;;;;;;;;;;21077482;28;20206;-69
2023/10/25 13:37:53;;;;;;;6.37;4.43;;;;;;;;;;21077526;28;20772;-68
2023/10/25 13:47:55;;;;;;;8.40;4.33;;;;;;;;;;21077212;28;20250;-69
2023/10/25 13:57:58;;;;;;;7.17;4.40;;;;;;;;;;21076097;28;20750;-71
2023/10/25 14:08:01;;;;;;;6.93;5.27;;;;;;;;;;21074372;28;20238;-70
2023/10/25 14:18:05;;;;;;;6.80;5.07;;;;;;;;;;21005926;28;20235;-68
2023/10/25 14:28:11;;;;;;;7.90;5.17;;;;;;;;;;21006102;28;20207;-68
2023/10/25 14:38:13;;;;;;;5.37;4.47;;;;;;;;;;21005489;28;20269;-68
2023/10/25 14:48:15;;;;;;;5.70;4.03;;;;;;;;;;21004720;28;20615;-69
2023/10/25 14:58:17;;;;;;;9.47;5.10;;;;;;;;;;20957309;28;20227;-69
2023/10/25 15:08:20;;;;;;;9.60;4.43;;;;;;;;;;20958865;28;20232;-68
2023/10/25 15:18:22;;;;;;;7.33;4.20;;;;;;;;;;20932475;28;20259;-68
2023/10/25 15:28:24;;;;;;;6.40;4.17;;;;;;;;;;20946680;28;20579;-68
2023/10/25 15:38:26;;;;;;;7.93;3.87;;;;;;;;;;20941274;28;20244;-69
2023/10/25 15:48:28;;;;;;;8.47;4.90;;;;;;;;;;20930455;28;20739;-70
2023/10/25 15:58:31;;;;;;;6.07;4.33;;;;;;;;;;20955675;28;20267;-68
2023/10/25 16:08:33;;;;;;;9.03;4.80;;;;;;;;;;20941355;28;20331;-67
2023/10/25 16:18:36;;;;;;;6.27;5.20;;;;;;;;;;20946378;28;20318;-67
2023/10/25 16:28:39;;;;;;;7.10;4.90;;;;;;;;;;20930397;28;20212;-68
2023/10/25 16:38:42;;;;;;;5.93;4.80;;;;;;;;;;20913629;28;20240;-68
2023/10/25 16:48:44;;;;;;;7.27;5.50;;;;;;;;;;20913512;28;20733;-68
2023/10/25 16:58:47;;;;;;;12.87;7.27;;;;;;;;;;20895097;28;20232;-68
2023/10/25 17:08:49;;;;;;;7.53;5.40;;;;;;;;;;20904280;28;20235;-67
2023/10/25 17:18:51;;;;;;;10.87;5.17;;;;;;;;;;20911508;28;20236;-72
2023/10/25 17:28:54;;;;;;;6.10;4.40;;;;;;;;;;20911563;28;20204;-72
2023/10/25 17:38:56;;;;;;;5.20;3.70;;;;;;;;;;20893765;28;20247;-70
2023/10/25 17:48:59;;;;;;;10.10;4.63;;;;;;;;;;20911490;28;20219;-70
2023/10/25 17:59:01;;;;;;;5.03;2.97;;;;;;;;;;20923125;28;20602;-67
2023/10/25 18:09:03;;;;;;;2.70;1.90;;;;;;;;;;20924401;28;20244;-67
2023/10/25 18:19:05;;;;;;;9.80;2.30;;;;;;;;;;20924724;28;20286;-68
2023/10/25 18:29:07;;;;;;;4.30;2.23;;;;;;;;;;20923624;28;20861;-68
2023/10/25 18:39:11;;;;;;;3.37;3.07;;;;;;;;;;20957982;28;20698;-68
2023/10/25 18:49:13;;;;;;;6.23;2.77;;;;;;;;;;21005504;28;20718;-68
2023/10/25 18:59:15;;;;;;;6.07;2.80;;;;;;;;;;21004979;28;20752;-67
2023/10/25 19:09:18;;;;;;;4.47;1.70;;;;;;;;;;21003203;28;20714;-68
2023/10/25 19:19:20;;;;;;;5.17;2.27;;;;;;;;;;21002698;28;20231;-66
2023/10/25 19:29:22;;;;;;;3.70;1.90;;;;;;;;;;21002065;28;20211;-68
2023/10/25 19:39:25;;;;;;;3.60;2.20;;;;;;;;;;21001508;28;20387;-69
2023/10/25 19:49:28;;;;;;;4.37;2.70;;;;;;;;;;21000795;28;20294;-68
2023/10/25 19:59:30;;;;;;;3.43;2.90;;;;;;;;;;20998946;28;20235;-67
2023/10/25 20:09:32;;;;;;;4.13;2.73;;;;;;;;;;20998897;28;20568;-69
2023/10/25 20:19:34;;;;;;;3.37;1.50;;;;;;;;;;20997979;28;20285;-68
2023/10/25 20:29:39;;;;;;;2.67;1.50;;;;;;;;;;20997748;28;20214;-68
2023/10/25 20:39:42;;;;;;;1.17;1.07;;;;;;;;;;20997330;28;20235;-68
2023/10/25 20:49:44;;;;;;;1.23;1.10;;;;;;;;;;20996653;28;20293;-68
2023/10/25 20:59:47;;;;;;;4.33;1.17;;;;;;;;;;20932685;28;20737;-68
2023/10/25 21:09:49;;;;;;;1.40;1.00;;;;;;;;;;20911875;28;20250;-69
2023/10/25 21:19:52;;;;;;;1.20;0.97;;;;;;;;;;20912308;28;20240;-69
2023/10/25 21:29:54;;;;;;;1.10;0.80;;;;;;;;;;20936792;28;20204;-69
2023/10/25 21:39:56;;;;;;;1.40;0.70;;;;;;;;;;20992124;28;20315;-69
2023/10/25 21:49:58;;;;;;;0.90;0.77;;;;;;;;;;21010713;28;20206;-69
2023/10/25 22:00:00;;;;;;;0.60;0.60;;;;;;;;;;21009489;28;20319;-68
2023/10/25 22:10:02;;;;;;;0.93;0.70;;;;;;;;;;21008481;28;20231;-68
2023/10/25 22:20:05;;;;;;;2.13;0.60;;;;;;;;;;21008368;28;20234;-68
2023/10/25 22:30:07;;;;;;;0.70;0.70;;;;;;;;;;20998937;28;20207;-68
2023/10/25 22:40:10;;;;;;;0.70;0.70;;;;;;;;;;20987559;28;20277;-68
2023/10/25 22:50:12;;;;;;;0.83;0.80;;;;;;;;;;21006029;28;20206;-68
2023/10/25 23:00:14;;;;;;;0.87;0.87;;;;;;;;;;21004851;28;20270;-68
2023/10/25 23:10:17;;;;;;;0.70;0.70;;;;;;;;;;21003886;28;20239;-68
2023/10/25 23:20:19;;;;;;;0.77;0.70;;;;;;;;;;21003712;28;20242;-68
2023/10/25 23:30:21;;;;;;;1.00;0.70;;;;;;;;;;21002450;28;20213;-67
2023/10/25 23:40:23;;;;;;;2.27;0.70;;;;;;;;;;21001541;28;20300;-68
2023/10/25 23:50:25;;;;;;;0.70;0.70;;;;;;;;;;21001250;28;20734;-68
